Time;durP1;ratioP1;P1;durP2;ratioP2;P2;SDS_P1;SDS_P2;PMS_P1;PMS_P2;Temp;Humidity;BMP_temperature;BMP_pressure;BME280_temperature;BME280_humidity;BME280_pressure;Samples;Min_cycle;Max_cycle;Signal;HPM_P1;HPM_P2
2021/04/10 00:01:37;;;;;;;;;;;;;;;5.66;58.66;99826.34;4881472;29;19928;-70
2021/04/10 00:04:05;;;;;;;;;;;;;;;5.61;59.24;99827.91;4881706;29;20287;-71
2021/04/10 00:06:33;;;;;;;;;;;;;;;5.55;59.26;99827.75;4881652;29;19934;-67
2021/04/10 00:09:01;;;;;;;;;;;;;;;5.52;59.09;99822.66;4881813;29;19955;-68
2021/04/10 00:11:29;;;;;;;;;;;;;;;5.52;59.11;99815.06;4864907;29;19935;-68
2021/04/10 00:13:57;;;;;;;;;;;;;;;5.50;59.79;99819.22;4881461;29;19934;-68
2021/04/10 00:16:24;;;;;;;;;;;;;;;5.46;60.04;99817.44;4881460;29;19928;-71
2021/04/10 00:18:52;;;;;;;;;;;;;;;5.42;60.34;99816.53;4864777;29;20418;-71
2021/04/10 00:21:20;;;;;;;;;;;;;;;5.42;59.67;99809.78;4881354;29;19935;-68
2021/04/10 00:23:47;;;;;;;;;;;;;;;5.40;60.59;99802.97;4881208;29;19976;-71
2021/04/10 00:26:15;;;;;;;;;;;;;;;5.38;60.50;99800.44;4881326;29;19959;-71
2021/04/10 00:28:43;;;;;;;;;;;;;;;5.38;60.10;99810.53;4881223;29;19932;-71
2021/04/10 00:31:11;;;;;;;;;;;;;;;5.36;60.62;99808.81;4864849;29;19939;-68
2021/04/10 00:33:39;;;;;;;;;;;;;;;5.34;60.51;99803.72;4881117;29;19932;-68
2021/04/10 00:36:08;;;;;;;;;;;;;;;5.33;60.91;99802.00;4864520;29;19928;-68
2021/04/10 00:38:37;;;;;;;;;;;;;;;5.31;60.65;99797.72;4881076;29;19928;-67
2021/04/10 00:41:05;;;;;;;;;;;;;;;5.26;60.97;99795.09;4864499;29;19928;-68
2021/04/10 00:43:33;;;;;;;;;;;;;;;5.20;60.62;99800.03;4880930;29;19928;-71
2021/04/10 00:46:02;;;;;;;;;;;;;;;5.19;61.60;99797.44;4880953;29;19939;-68
2021/04/10 00:48:29;;;;;;;;;;;;;;;5.16;60.98;99798.22;4880216;29;19934;-71
2021/04/10 00:51:01;;;;;;;;;;;;;;;5.12;61.04;99806.59;4880852;29;19932;-68
2021/04/10 00:53:30;;;;;;;;;;;;;;;5.09;61.34;99796.38;4864443;29;19935;-70
2021/04/10 00:56:01;;;;;;;;;;;;;;;5.09;61.64;99800.59;4881624;29;19980;-68
2021/04/10 00:58:38;;;;;;;;;;;;;;;5.07;61.56;99798.03;4865426;29;20398;-68
2021/04/10 01:01:07;;;;;;;;;;;;;;;5.03;61.95;99806.38;4863929;29;19935;-72
2021/04/10 01:03:38;;;;;;;;;;;;;;;5.00;62.15;99806.31;4880703;29;19935;-69
2021/04/10 01:06:07;;;;;;;;;;;;;;;4.98;62.19;99813.00;4880666;29;19956;-67
2021/04/10 01:08:35;;;;;;;;;;;;;;;4.98;62.33;99815.53;4880601;29;19935;-68
2021/04/10 01:11:04;;;;;;;;;;;;;;;4.95;61.82;99815.44;4880512;29;19928;-71
2021/04/10 01:13:36;;;;;;;;;;;;;;;4.95;62.24;99812.06;4863972;29;19928;-68
2021/04/10 01:16:07;;;;;;;;;;;;;;;4.95;62.52;99817.97;4863993;29;20035;-70
2021/04/10 01:18:41;;;;;;;;;;;;;;;4.96;62.36;99819.69;4880510;29;20022;-71
2021/04/10 01:21:16;;;;;;;;;;;;;;;4.95;62.76;99810.41;4880727;29;20023;-71
2021/04/10 01:23:54;;;;;;;;;;;;;;;4.95;62.87;99801.94;4880418;29;19928;-69
2021/04/10 01:26:33;;;;;;;;;;;;;;;4.92;62.27;99804.44;4863924;29;19939;-68
2021/04/10 01:29:04;;;;;;;;;;;;;;;4.90;63.05;99806.91;4880401;29;20013;-71
2021/04/10 01:31:34;;;;;;;;;;;;;;;4.85;63.31;99805.94;4863788;29;19932;-71
2021/04/10 01:34:05;;;;;;;;;;;;;;;4.81;62.69;99809.22;4863712;29;19934;-70
2021/04/10 01:36:36;;;;;;;;;;;;;;;4.77;63.03;99809.09;4880328;29;19928;-71
2021/04/10 01:39:07;;;;;;;;;;;;;;;4.77;63.40;99807.44;4880297;29;19927;-68
2021/04/10 01:41:35;;;;;;;;;;;;;;;4.78;63.52;99795.63;4863728;29;19928;-71
2021/04/10 01:44:05;;;;;;;;;;;;;;;4.73;63.25;99793.00;4863661;29;19944;-67
2021/04/10 01:46:35;;;;;;;;;;;;;;;4.67;63.83;99788.66;4863687;29;20453;-67
2021/04/10 01:49:03;;;;;;;;;;;;;;;4.64;63.19;99800.38;4880173;29;19959;-68
2021/04/10 01:51:32;;;;;;;;;;;;;;;4.58;63.38;99790.13;4880076;29;19971;-68
2021/04/10 01:54:00;;;;;;;;;;;;;;;4.53;63.44;99796.72;4880130;29;19928;-68
2021/04/10 01:56:32;;;;;;;;;;;;;;;4.51;64.01;99799.19;4880048;29;19934;-68
2021/04/10 01:59:03;;;;;;;;;;;;;;;4.44;63.55;99787.22;4864732;29;19928;-71
2021/04/10 02:01:49;;;;;;;;;;;;;;;4.42;64.41;99785.47;4867041;29;19928;-70
2021/04/10 02:04:18;;;;;;;;;;;;;;;4.37;64.27;99799.66;4883875;29;20391;-67
2021/04/10 02:06:50;;;;;;;;;;;;;;;4.30;64.25;99802.84;4883828;29;19928;-68
2021/04/10 02:09:22;;;;;;;;;;;;;;;4.25;64.22;99796.84;4867097;29;20026;-68
2021/04/10 02:12:03;;;;;;;;;;;;;;;4.21;64.32;99802.63;4883725;29;19928;-67
2021/04/10 02:14:38;;;;;;;;;;;;;;;4.18;64.67;99800.84;4867387;29;19928;-68
2021/04/10 02:17:08;;;;;;;;;;;;;;;4.14;64.80;99795.69;4883549;29;19935;-67
2021/04/10 02:19:47;;;;;;;;;;;;;;;4.11;65.33;99805.69;4883611;29;20014;-67
2021/04/10 02:22:20;;;;;;;;;;;;;;;4.10;64.71;99806.53;4866926;29;19935;-71
2021/04/10 02:24:49;;;;;;;;;;;;;;;4.06;65.16;99803.06;4883520;29;19928;-67
2021/04/10 02:27:16;;;;;;;;;;;;;;;4.02;64.91;99812.25;4883372;29;20379;-71
2021/04/10 02:29:53;;;;;;;;;;;;;;;3.97;65.67;99808.72;4883631;29;19966;-68
2021/04/10 02:32:26;;;;;;;;;;;;;;;3.95;65.81;99807.84;4866753;29;19928;-67
2021/04/10 02:35:01;;;;;;;;;;;;;;;3.92;65.25;99800.16;4866766;29;19963;-71
2021/04/10 02:37:30;;;;;;;;;;;;;;;3.87;65.37;99803.38;4883231;29;19927;-67
2021/04/10 02:39:59;;;;;;;;;;;;;;;3.84;65.76;99801.63;4883195;29;20298;-67
2021/04/10 02:42:31;;;;;;;;;;;;;;;3.83;65.34;99807.50;4866634;29;19951;-68
2021/04/10 02:45:03;;;;;;;;;;;;;;;3.80;65.91;99809.94;4866512;29;20358;-71
2021/04/10 02:47:34;;;;;;;;;;;;;;;3.75;65.88;99810.59;4882973;29;19927;-68
2021/04/10 02:50:05;;;;;;;;;;;;;;;3.72;65.86;99810.53;4883000;29;19971;-71
2021/04/10 02:52:39;;;;;;;;;;;;;;;3.72;65.75;99813.88;4866407;29;19927;-67
2021/04/10 02:55:10;;;;;;;;;;;;;;;3.70;66.03;99810.47;4882974;29;20442;-68
2021/04/10 02:57:38;;;;;;;;;;;;;;;3.68;66.79;99807.06;4866876;29;19928;-71
2021/04/10 03:00:08;;;;;;;;;;;;;;;3.67;66.59;99812.06;4866264;29;19928;-67
2021/04/10 03:02:43;;;;;;;;;;;;;;;3.63;66.99;99811.13;4882505;29;19963;-71
2021/04/10 03:05:14;;;;;;;;;;;;;;;3.58;66.61;99815.16;4866194;29;19927;-67
2021/04/10 03:07:45;;;;;;;;;;;;;;;3.56;67.13;99811.75;4882656;29;19979;-71
2021/04/10 03:10:15;;;;;;;;;;;;;;;3.60;67.24;99810.19;4850136;29;19928;-71
2021/04/10 03:12:44;;;;;;;;;;;;;;;3.59;67.18;99810.97;4866047;29;19931;-71
2021/04/10 03:15:14;;;;;;;;;;;;;;;3.55;66.45;99807.50;4866260;29;20011;-67
2021/04/10 03:17:48;;;;;;;;;;;;;;;3.53;67.11;99808.28;4882745;29;19934;-69
2021/04/10 03:20:16;;;;;;;;;;;;;;;3.50;67.21;99793.06;4882429;29;19934;-71
2021/04/10 03:22:46;;;;;;;;;;;;;;;3.46;66.78;99796.28;4866413;29;19928;-67
2021/04/10 03:25:20;;;;;;;;;;;;;;;3.36;66.89;99790.97;4865913;29;19928;-71
2021/04/10 03:27:50;;;;;;;;;;;;;;;3.28;67.24;99791.56;4882613;29;19928;-70
2021/04/10 03:30:20;;;;;;;;;;;;;;;3.21;66.72;99792.22;4865685;29;19971;-71
2021/04/10 03:32:52;;;;;;;;;;;;;;;3.13;66.93;99796.16;4882372;29;20031;-71
2021/04/10 03:35:26;;;;;;;;;;;;;;;3.05;67.75;99802.63;4865752;29;19980;-71
2021/04/10 03:37:57;;;;;;;;;;;;;;;3.03;67.92;99812.66;4865602;29;20035;-69
2021/04/10 03:40:27;;;;;;;;;;;;;;;2.99;67.23;99818.44;4865630;29;19927;-67
2021/04/10 03:42:58;;;;;;;;;;;;;;;2.98;68.32;99820.88;4865545;29;19928;-71
2021/04/10 03:45:33;;;;;;;;;;;;;;;2.98;68.52;99826.78;4866006;29;19928;-71
2021/04/10 03:48:08;;;;;;;;;;;;;;;3.03;68.09;99824.41;4881953;29;19996;-69
2021/04/10 03:50:50;;;;;;;;;;;;;;;3.06;68.57;99827.03;4882187;29;20026;-67
2021/04/10 03:53:18;;;;;;;;;;;;;;;3.06;67.96;99829.53;4881913;29;19928;-71
2021/04/10 03:55:51;;;;;;;;;;;;;;;3.10;67.71;99821.25;4865339;29;19928;-67
2021/04/10 03:58:20;;;;;;;;;;;;;;;3.13;67.89;99836.50;4881759;29;19955;-69
2021/04/10 04:00:47;;;;;;;;;;;;;;;3.11;68.40;99828.03;4881764;29;20006;-67
2021/04/10 04:03:16;;;;;;;;;;;;;;;3.11;67.79;99817.94;4881767;29;19934;-70
2021/04/10 04:05:43;;;;;;;;;;;;;;;3.09;67.91;99822.09;4881680;29;19953;-67
2021/04/10 04:08:11;;;;;;;;;;;;;;;3.08;68.44;99823.75;4881885;29;19935;-67
2021/04/10 04:10:38;;;;;;;;;;;;;;;3.06;68.27;99830.41;4881488;29;19931;-70
2021/04/10 04:13:06;;;;;;;;;;;;;;;3.04;67.74;99837.06;4881822;29;19927;-71
2021/04/10 04:15:34;;;;;;;;;;;;;;;3.03;67.99;99829.44;4881482;29;19928;-68
2021/04/10 04:18:01;;;;;;;;;;;;;;;3.03;68.10;99832.81;4881468;29;19928;-67
2021/04/10 04:20:30;;;;;;;;;;;;;;;3.00;68.01;99839.44;4881526;29;20019;-67
2021/04/10 04:22:59;;;;;;;;;;;;;;;2.97;68.34;99841.88;4881365;29;19928;-71
2021/04/10 04:25:27;;;;;;;;;;;;;;;2.98;68.50;99841.03;4881341;29;20382;-71
2021/04/10 04:27:54;;;;;;;;;;;;;;;2.99;67.83;99840.25;4881553;29;19932;-67
2021/04/10 04:30:22;;;;;;;;;;;;;;;2.99;67.69;99842.78;4881161;29;20071;-71
2021/04/10 04:32:50;;;;;;;;;;;;;;;2.99;68.52;99842.78;4881398;29;19927;-71
2021/04/10 04:35:18;;;;;;;;;;;;;;;3.01;68.00;99848.72;4881174;29;19959;-70
2021/04/10 04:37:47;;;;;;;;;;;;;;;3.05;68.50;99843.81;4881411;29;20327;-67
2021/04/10 04:40:15;;;;;;;;;;;;;;;3.08;68.15;99850.63;4881008;29;19976;-70
2021/04/10 04:42:42;;;;;;;;;;;;;;;3.08;68.88;99843.91;4864669;29;20022;-70
2021/04/10 04:45:10;;;;;;;;;;;;;;;3.11;68.40;99853.25;4880964;29;20027;-70
2021/04/10 04:47:38;;;;;;;;;;;;;;;3.13;68.20;99852.47;4880953;29;19961;-71
2021/04/10 04:50:06;;;;;;;;;;;;;;;3.16;69.04;99856.78;4880757;29;19928;-68
2021/04/10 04:52:34;;;;;;;;;;;;;;;3.21;68.52;99855.25;4881054;29;20290;-71
2021/04/10 04:55:02;;;;;;;;;;;;;;;3.30;68.47;99855.53;4864411;29;20034;-67
2021/04/10 04:57:30;;;;;;;;;;;;;;;3.40;68.86;99855.00;4881063;29;19928;-67
2021/04/10 04:59:57;;;;;;;;;;;;;;;3.49;68.87;99867.88;4880709;29;19963;-70
2021/04/10 05:02:25;;;;;;;;;;;;;;;3.56;68.64;99874.81;4880410;29;19932;-67
2021/04/10 05:04:53;;;;;;;;;;;;;;;3.66;68.08;99876.81;4880652;29;20003;-70
2021/04/10 05:07:20;;;;;;;;;;;;;;;3.73;68.36;99871.13;4880602;29;19966;-68
2021/04/10 05:09:48;;;;;;;;;;;;;;;3.81;68.17;99871.38;4880562;29;19935;-70
2021/04/10 05:12:17;;;;;;;;;;;;;;;3.92;67.93;99878.44;4880500;29;20379;-67
2021/04/10 05:14:44;;;;;;;;;;;;;;;4.00;68.53;99889.63;4880506;29;20015;-67
2021/04/10 05:17:14;;;;;;;;;;;;;;;4.13;67.63;99889.97;4880488;29;19938;-70
2021/04/10 05:19:41;;;;;;;;;;;;;;;4.23;68.00;99896.97;4880915;29;19928;-71
2021/04/10 05:22:10;;;;;;;;;;;;;;;4.36;67.72;99892.31;4880380;29;19966;-70
2021/04/10 05:24:37;;;;;;;;;;;;;;;4.48;67.86;99895.16;4880682;29;20043;-67
2021/04/10 05:27:05;;;;;;;;;;;;;;;4.63;67.71;99889.66;4880370;29;19928;-71
2021/04/10 05:29:34;;;;;;;;;;;;;;;4.80;67.37;99890.91;4880360;29;19942;-67
2021/04/10 05:32:02;;;;;;;;;;;;;;;4.96;67.11;99885.47;4880220;29;20295;-67
2021/04/10 05:34:30;;;;;;;;;;;;;;;5.11;67.06;99895.91;4879930;29;19975;-68
2021/04/10 05:36:58;;;;;;;;;;;;;;;5.30;66.30;99887.94;4864472;29;19934;-71
2021/04/10 05:39:26;;;;;;;;;;;;;;;5.48;66.36;99896.78;4880251;29;19978;-72
2021/04/10 05:41:53;;;;;;;;;;;;;;;5.64;66.07;99898.88;4880192;29;19986;-67
2021/04/10 05:44:24;;;;;;;;;;;;;;;5.79;66.00;99897.50;4880182;29;19984;-71
2021/04/10 05:46:53;;;;;;;;;;;;;;;5.93;65.88;99892.75;4880205;29;20405;-67
2021/04/10 05:49:21;;;;;;;;;;;;;;;6.10;65.67;99899.03;4880448;29;20018;-70
2021/04/10 05:51:48;;;;;;;;;;;;;;;6.27;65.63;99900.25;4880034;29;19928;-68
2021/04/10 05:54:16;;;;;;;;;;;;;;;6.49;65.18;99902.38;4880140;29;19928;-71
2021/04/10 05:56:45;;;;;;;;;;;;;;;6.67;64.74;99902.69;4880117;29;19935;-68
2021/04/10 05:59:12;;;;;;;;;;;;;;;6.86;64.85;99898.84;4880074;29;20488;-67
2021/04/10 06:01:41;;;;;;;;;;;;;;;7.08;64.34;99910.19;4880060;29;19934;-69
2021/04/10 06:04:10;;;;;;;;;;;;;;;7.25;64.33;99903.69;4880021;29;20019;-71
2021/04/10 06:06:40;;;;;;;;;;;;;;;7.44;63.88;99905.69;4880047;29;19927;-69
2021/04/10 06:09:08;;;;;;;;;;;;;;;7.68;63.60;99906.06;4879985;29;19928;-67
2021/04/10 06:11:36;;;;;;;;;;;;;;;7.92;62.89;99906.38;4879778;29;20340;-67
2021/04/10 06:14:03;;;;;;;;;;;;;;;8.10;61.44;99904.09;4879712;29;19931;-70
2021/04/10 06:16:31;;;;;;;;;;;;;;;8.31;60.15;99911.16;4863504;29;19928;-67
2021/04/10 06:18:58;;;;;;;;;;;;;;;8.50;59.82;99909.69;4880136;29;19964;-69
2021/04/10 06:21:27;;;;;;;;;;;;;;;8.67;58.87;99910.72;4879847;29;20298;-69
2021/04/10 06:23:55;;;;;;;;;;;;;;;8.85;58.51;99905.84;4879795;29;19974;-70
2021/04/10 06:26:22;;;;;;;;;;;;;;;9.00;58.29;99895.78;4879813;29;20015;-69
2021/04/10 06:28:50;;;;;;;;;;;;;;;9.16;58.01;99907.81;4879799;29;19935;-69
2021/04/10 06:31:18;;;;;;;;;;;;;;;9.33;57.03;99906.22;4879714;29;19931;-70
2021/04/10 06:33:45;;;;;;;;;;;;;;;9.52;56.60;99901.28;4879704;29;19928;-69
2021/04/10 06:36:16;;;;;;;;;;;;;;;9.72;55.82;99899.69;4879708;29;19961;-70
2021/04/10 06:38:45;;;;;;;;;;;;;;;9.88;55.61;99896.44;4879721;29;19931;-70
2021/04/10 06:41:13;;;;;;;;;;;;;;;10.05;54.42;99899.91;4879645;29;19931;-68
2021/04/10 06:43:41;;;;;;;;;;;;;;;10.25;55.04;99897.47;4863067;29;19935;-69
2021/04/10 06:46:09;;;;;;;;;;;;;;;10.37;54.83;99898.38;4880828;29;19935;-67
2021/04/10 06:48:38;;;;;;;;;;;;;;;10.49;53.23;99898.41;4882961;29;19935;-69
2021/04/10 06:51:06;;;;;;;;;;;;;;;10.64;53.19;99893.34;4883167;29;19954;-69
2021/04/10 06:53:39;;;;;;;;;;;;;;;10.83;53.03;99901.03;4883130;29;20327;-69
2021/04/10 06:56:09;;;;;;;;;;;;;;;11.00;52.40;99897.66;4883219;29;19934;-68
2021/04/10 06:58:37;;;;;;;;;;;;;;;11.14;52.43;99901.06;4883038;29;19935;-69
2021/04/10 07:01:05;;;;;;;;;;;;;;;11.32;51.78;99895.13;4882762;29;19927;-68
2021/04/10 07:03:33;;;;;;;;;;;;;;;11.47;51.02;99889.16;4882657;29;19935;-68
2021/04/10 07:06:01;;;;;;;;;;;;;;;11.50;50.33;99884.88;4882643;29;20474;-69
2021/04/10 07:08:28;;;;;;;;;;;;;;;11.61;50.08;99880.63;4882889;29;19934;-69
2021/04/10 07:10:56;;;;;;;;;;;;;;;11.78;49.54;99881.44;4882705;29;19960;-69
2021/04/10 07:13:25;;;;;;;;;;;;;;;11.95;49.83;99881.38;4882903;29;19959;-69
2021/04/10 07:15:53;;;;;;;;;;;;;;;12.09;49.35;99877.09;4882769;29;20054;-70
2021/04/10 07:18:27;;;;;;;;;;;;;;;12.19;48.61;99877.94;4882497;29;19927;-69
2021/04/10 07:21:09;;;;;;;;;;;;;;;12.27;48.24;99876.16;4882780;29;19976;-69
2021/04/10 07:23:43;;;;;;;;;;;;;;;12.36;48.26;99871.84;4882718;29;19999;-69
2021/04/10 07:26:10;;;;;;;;;;;;;;;12.46;48.24;99872.66;4882416;29;19934;-69
2021/04/10 07:28:39;;;;;;;;;;;;;;;12.59;48.14;99864.91;4882597;29;19935;-69
2021/04/10 07:31:07;;;;;;;;;;;;;;;12.65;47.66;99866.56;4882380;29;19928;-70
2021/04/10 07:33:36;;;;;;;;;;;;;;;12.80;47.51;99863.91;4882111;29;19994;-71
2021/04/10 07:36:05;;;;;;;;;;;;;;;12.94;47.15;99864.66;4882394;29;19935;-70
2021/04/10 07:38:47;;;;;;;;;;;;;;;13.05;46.34;99865.41;4882216;29;19932;-69
2021/04/10 07:41:17;;;;;;;;;;;;;;;12.99;45.88;99859.50;4825000;29;19929;-71
2021/04/10 07:43:46;;;;;;;;;;;;;;;13.05;45.73;99865.41;4825017;29;19932;-70
2021/04/10 07:46:15;;;;;;;;;;;;;;;13.23;45.50;99864.47;4824853;29;20475;-69
2021/04/10 07:48:59;;;;;;;;;;;;;;;13.57;45.64;99873.56;4824706;29;19936;-69
2021/04/10 07:51:28;;;;;;;;;;;;;;;13.80;45.55;99874.16;4824644;29;19929;-68
2021/04/10 07:53:56;;;;;;;;;;;;;;;13.90;44.85;99864.66;4824617;29;19935;-68
2021/04/10 07:56:24;;;;;;;;;;;;;;;14.01;44.54;99873.09;4809149;29;20395;-69
2021/04/10 07:59:01;;;;;;;;;;;;;;;14.04;44.50;99873.91;4824852;29;19929;-69
2021/04/10 08:01:28;;;;;;;;;;;;;;;14.06;44.40;99866.16;4824332;29;20036;-69
2021/04/10 08:04:12;;;;;;;;;;;;;;;13.90;43.69;99869.78;4824459;29;19929;-68
2021/04/10 08:06:52;;;;;;;;;;;;;;;13.95;44.59;99868.03;4824479;29;19936;-71
2021/04/10 08:09:26;;;;;;;;;;;;;;;13.96;44.38;99864.59;4824692;29;19928;-71
2021/04/10 08:11:55;;;;;;;;;;;;;;;13.96;44.32;99864.59;4809291;29;19929;-69
2021/04/10 08:14:24;;;;;;;;;;;;;;;14.08;44.35;99865.28;4824309;29;19939;-70
2021/04/10 08:16:52;;;;;;;;;;;;;;;14.18;44.08;99860.88;4824273;29;19970;-70
2021/04/10 08:19:28;;;;;;;;;;;;;;;14.08;43.54;99859.31;4873704;29;19959;-70
2021/04/10 08:21:56;;;;;;;;;;;;;;;14.20;44.06;99858.31;4881435;29;19935;-69
2021/04/10 08:24:44;;;;;;;;;;;;;;;14.31;43.71;99867.63;4881416;29;20014;-71
2021/04/10 08:27:13;;;;;;;;;;;;;;;14.55;43.78;99864.72;4881353;29;19951;-71
2021/04/10 08:29:42;;;;;;;;;;;;;;;14.69;43.54;99867.94;4881247;29;19959;-70
2021/04/10 08:32:11;;;;;;;;;;;;;;;14.74;43.05;99873.00;4881239;29;20366;-69
2021/04/10 08:34:40;;;;;;;;;;;;;;;14.91;43.14;99870.19;4881657;29;19928;-68
2021/04/10 08:37:08;;;;;;;;;;;;;;;14.99;43.00;99864.06;4881109;29;20015;-72
2021/04/10 08:39:37;;;;;;;;;;;;;;;15.23;43.39;99867.97;4864424;29;19989;-71
2021/04/10 08:42:06;;;;;;;;;;;;;;;15.07;42.64;99862.22;4881059;29;20302;-68
2021/04/10 08:44:35;;;;;;;;;;;;;;;15.03;42.04;99864.84;4880854;29;20023;-67
2021/04/10 08:47:04;;;;;;;;;;;;;;;14.89;42.25;99877.06;4880942;29;19932;-68
2021/04/10 08:49:36;;;;;;;;;;;;;;;14.96;42.16;99870.97;4881094;29;19928;-71
2021/04/10 08:52:06;;;;;;;;;;;;;;;15.15;42.83;99874.94;4880832;29;20030;-70
2021/04/10 08:54:34;;;;;;;;;;;;;;;15.28;42.45;99871.31;4880851;29;20059;-70
2021/04/10 08:57:05;;;;;;;;;;;;;;;15.19;41.73;99866.28;4881093;29;19934;-70
2021/04/10 08:59:36;;;;;;;;;;;;;;;15.27;41.69;99869.59;4881280;29;19932;-69
2021/04/10 09:02:07;;;;;;;;;;;;;;;15.45;41.28;99864.19;4880517;29;19928;-71
2021/04/10 09:04:38;;;;;;;;;;;;;;;15.58;40.79;99868.22;4880772;29;19934;-72
2021/04/10 09:07:06;;;;;;;;;;;;;;;15.65;40.75;99866.38;4880689;29;19935;-71
2021/04/10 09:09:33;;;;;;;;;;;;;;;15.50;40.48;99864.94;4863490;29;19932;-70
2021/04/10 09:12:04;;;;;;;;;;;;;;;15.50;40.05;99866.69;4880438;29;19928;-70
2021/04/10 09:14:34;;;;;;;;;;;;;;;15.65;40.00;99862.09;4880582;29;19934;-71
2021/04/10 09:17:02;;;;;;;;;;;;;;;15.97;40.37;99859.78;4880545;29;19928;-71
2021/04/10 09:19:32;;;;;;;;;;;;;;;16.21;40.40;99857.56;4880414;29;19951;-69
2021/04/10 09:22:00;;;;;;;;;;;;;;;16.19;40.11;99861.91;4880476;29;19928;-70
2021/04/10 09:24:30;;;;;;;;;;;;;;;16.35;40.12;99851.25;4880684;29;19963;-72
2021/04/10 09:26:59;;;;;;;;;;;;;;;16.35;38.73;99852.97;4880382;29;19928;-71
2021/04/10 09:29:29;;;;;;;;;;;;;;;16.19;38.45;99860.19;4863598;29;21516;-70
2021/04/10 09:31:58;;;;;;;;;;;;;;;16.22;38.20;99851.56;4880205;29;19927;-71
2021/04/10 09:34:29;;;;;;;;;;;;;;;16.30;37.72;99852.22;4880327;29;19928;-69
2021/04/10 09:36:57;;;;;;;;;;;;;;;16.44;37.87;99850.19;4880576;29;19928;-69
2021/04/10 09:39:40;;;;;;;;;;;;;;;16.49;37.71;99848.38;4863879;29;20014;-72
2021/04/10 09:42:08;;;;;;;;;;;;;;;16.54;37.21;99841.41;4874562;29;20382;-69
2021/04/10 09:45:03;;;;;;;;;;;;;;;16.39;37.28;99846.88;4880249;29;19983;-69
2021/04/10 09:47:47;;;;;;;;;;;;;;;16.48;37.35;99844.13;4880141;29;20448;-69
2021/04/10 09:50:14;;;;;;;;;;;;;;;16.65;37.02;99829.16;4879643;29;19976;-72
2021/04/10 09:52:43;;;;;;;;;;;;;;;16.95;37.28;99840.47;4880095;29;20343;-69
2021/04/10 09:55:11;;;;;;;;;;;;;;;16.80;36.08;99831.34;4863905;29;20287;-72
2021/04/10 09:57:39;;;;;;;;;;;;;;;16.85;36.42;99836.41;4880075;29;19932;-69
2021/04/10 10:00:07;;;;;;;;;;;;;;;16.80;36.61;99826.19;4863493;29;19935;-72
2021/04/10 10:02:35;;;;;;;;;;;;;;;16.91;37.12;99824.25;4860311;29;19928;-71
2021/04/10 10:05:07;;;;;;;;;;;;;;;17.09;37.36;99831.50;4861529;29;19976;-71
2021/04/10 10:07:34;;;;;;;;;;;;;;;16.98;36.49;99825.78;4861639;29;20486;-69
2021/04/10 10:10:05;;;;;;;;;;;;;;;17.09;37.89;99816.03;4861403;29;19928;-69
2021/04/10 10:12:34;;;;;;;;;;;;;;;17.17;37.14;99819.28;4861352;29;19990;-70
2021/04/10 10:15:01;;;;;;;;;;;;;;;17.20;37.63;99811.44;4861630;29;20028;-70
2021/04/10 10:17:29;;;;;;;;;;;;;;;17.12;37.53;99810.81;4861378;29;19928;-70
2021/04/10 10:19:59;;;;;;;;;;;;;;;17.05;36.89;99809.28;4862518;29;19995;-69
2021/04/10 10:22:28;;;;;;;;;;;;;;;16.94;36.76;99806.09;4865313;29;19935;-70
2021/04/10 10:24:59;;;;;;;;;;;;;;;17.08;37.10;99809.19;4864843;29;19928;-71
2021/04/10 10:27:33;;;;;;;;;;;;;;;17.21;36.47;99810.56;4863814;29;19928;-70
2021/04/10 10:30:02;;;;;;;;;;;;;;;17.32;35.93;99805.97;4864926;29;19984;-72
2021/04/10 10:32:30;;;;;;;;;;;;;;;17.47;35.91;99802.13;4864721;29;19984;-69
2021/04/10 10:35:04;;;;;;;;;;;;;;;17.41;36.68;99803.19;4864981;29;19928;-69
2021/04/10 10:37:32;;;;;;;;;;;;;;;17.44;36.81;99810.81;4863536;29;19928;-71
2021/04/10 10:40:00;;;;;;;;;;;;;;;17.46;36.93;99800.47;4864682;29;19928;-70
2021/04/10 10:42:29;;;;;;;;;;;;;;;17.28;36.00;99801.78;4864570;29;20366;-70
2021/04/10 10:44:56;;;;;;;;;;;;;;;17.43;35.02;99806.56;4864538;29;19966;-72
2021/04/10 10:47:25;;;;;;;;;;;;;;;17.55;34.76;99797.66;4864551;29;19963;-71
2021/04/10 10:49:54;;;;;;;;;;;;;;;17.66;34.23;99802.53;4864494;29;19968;-70
2021/04/10 10:52:21;;;;;;;;;;;;;;;17.84;33.80;99802.88;4864359;29;20343;-72
2021/04/10 10:54:50;;;;;;;;;;;;;;;17.86;33.41;99807.97;4863270;29;19928;-72
2021/04/10 10:57:18;;;;;;;;;;;;;;;17.79;32.86;99798.72;4864329;29;19935;-71
2021/04/10 11:00:08;;;;;;;;;;;;;;;17.85;33.78;99803.72;4864442;29;19980;-70
2021/04/10 11:02:37;;;;;;;;;;;;;;;17.95;34.82;99800.81;4872762;29;19928;-71
2021/04/10 11:05:06;;;;;;;;;;;;;;;18.03;34.67;99798.03;4883006;29;19980;-70
2021/04/10 11:07:33;;;;;;;;;;;;;;;18.02;34.93;99802.34;4866178;29;19931;-69
2021/04/10 11:10:01;;;;;;;;;;;;;;;18.04;35.23;99810.06;4882725;29;19928;-69
2021/04/10 11:12:29;;;;;;;;;;;;;;;17.97;34.43;99811.13;4865999;29;19928;-70
2021/04/10 11:14:58;;;;;;;;;;;;;;;17.97;35.38;99808.53;4882644;29;19928;-70
2021/04/10 11:17:29;;;;;;;;;;;;;;;17.92;35.92;99805.25;4882605;29;20032;-68
2021/04/10 11:19:59;;;;;;;;;;;;;;;17.88;35.01;99813.94;4882478;29;20023;-69
2021/04/10 11:22:27;;;;;;;;;;;;;;;17.85;35.42;99808.88;4882757;29;20105;-69
2021/04/10 11:25:00;;;;;;;;;;;;;;;17.99;35.31;99811.94;4882411;29;20361;-70
2021/04/10 11:27:34;;;;;;;;;;;;;;;17.96;33.55;99812.00;4882451;29;19967;-69
2021/04/10 11:30:03;;;;;;;;;;;;;;;17.85;33.52;99816.63;4882467;29;19934;-69
2021/04/10 11:32:37;;;;;;;;;;;;;;;17.72;34.14;99810.09;4881622;29;20279;-69
2021/04/10 11:35:07;;;;;;;;;;;;;;;17.77;34.21;99805.66;4882356;29;19936;-69
2021/04/10 11:37:41;;;;;;;;;;;;;;;17.87;35.32;99812.28;4882536;29;19928;-70
2021/04/10 11:40:10;;;;;;;;;;;;;;;17.90;34.43;99807.84;4882216;29;19936;-70
2021/04/10 11:42:38;;;;;;;;;;;;;;;17.90;34.36;99818.19;4865720;29;19931;-71
2021/04/10 11:45:08;;;;;;;;;;;;;;;17.95;34.36;99802.56;4882339;29;19934;-69
2021/04/10 11:47:36;;;;;;;;;;;;;;;18.09;33.60;99813.38;4881890;29;20389;-70
2021/04/10 11:50:08;;;;;;;;;;;;;;;18.01;33.17;99805.81;4881929;29;19932;-70
2021/04/10 11:52:36;;;;;;;;;;;;;;;18.28;33.44;99804.16;4881921;29;19958;-69
2021/04/10 11:55:05;;;;;;;;;;;;;;;18.36;32.51;99796.16;4881883;29;19932;-70
2021/04/10 11:57:34;;;;;;;;;;;;;;;18.42;33.08;99796.84;4882062;29;20036;-70
2021/04/10 12:00:06;;;;;;;;;;;;;;;18.48;33.60;99796.66;4881858;29;20294;-71
2021/04/10 12:02:34;;;;;;;;;;;;;;;18.56;33.77;99799.88;4881608;29;19932;-68
2021/04/10 12:05:05;;;;;;;;;;;;;;;18.59;33.73;99784.28;4881961;29;19934;-70
2021/04/10 12:07:34;;;;;;;;;;;;;;;18.42;34.52;99791.69;4881717;29;19934;-70
2021/04/10 12:10:01;;;;;;;;;;;;;;;18.25;34.63;99791.34;4881645;29;19955;-71
2021/04/10 12:12:29;;;;;;;;;;;;;;;18.44;35.34;99795.06;4881712;29;19928;-72
2021/04/10 12:14:56;;;;;;;;;;;;;;;18.48;34.48;99786.34;4865272;29;19951;-71
2021/04/10 12:17:24;;;;;;;;;;;;;;;18.30;34.00;99789.47;4881511;29;19932;-69
2021/04/10 12:19:51;;;;;;;;;;;;;;;18.14;33.29;99785.63;4881446;29;19928;-70
2021/04/10 12:22:19;;;;;;;;;;;;;;;18.17;33.22;99787.28;4865041;29;19928;-68
2021/04/10 12:24:48;;;;;;;;;;;;;;;18.27;34.26;99786.97;4881276;29;20335;-70
2021/04/10 12:27:16;;;;;;;;;;;;;;;18.39;34.18;99781.44;4881598;29;19928;-68
2021/04/10 12:29:43;;;;;;;;;;;;;;;18.46;33.49;99776.94;4881173;29;20390;-68
2021/04/10 12:32:11;;;;;;;;;;;;;;;18.53;33.52;99774.13;4881213;29;20396;-69
2021/04/10 12:34:39;;;;;;;;;;;;;;;18.50;33.86;99763.84;4864555;29;19932;-68
2021/04/10 12:37:07;;;;;;;;;;;;;;;18.52;34.52;99767.25;4881460;29;19928;-68
2021/04/10 12:39:37;;;;;;;;;;;;;;;18.61;34.67;99768.69;4864504;29;19932;-68
2021/04/10 12:42:06;;;;;;;;;;;;;;;18.71;33.81;99763.16;4881028;29;19928;-69
2021/04/10 12:44:34;;;;;;;;;;;;;;;18.69;33.15;99759.78;4880375;29;19928;-67
2021/04/10 12:47:01;;;;;;;;;;;;;;;18.76;32.89;99764.78;4880932;29;19934;-69
2021/04/10 12:49:32;;;;;;;;;;;;;;;18.86;33.10;99755.84;4880963;29;19927;-69
2021/04/10 12:52:00;;;;;;;;;;;;;;;19.01;32.75;99755.31;4880874;29;19934;-69
2021/04/10 12:54:27;;;;;;;;;;;;;;;19.00;33.08;99763.97;4880858;29;20000;-70
2021/04/10 12:56:55;;;;;;;;;;;;;;;18.98;33.58;99756.25;4881148;29;20405;-70
2021/04/10 12:59:23;;;;;;;;;;;;;;;19.09;34.19;99742.97;4881118;29;20023;-70
2021/04/10 13:01:51;;;;;;;;;;;;;;;19.12;34.15;99754.03;4880755;29;19936;-69
2021/04/10 13:04:19;;;;;;;;;;;;;;;19.07;34.09;99749.94;4880684;29;20022;-68
2021/04/10 13:06:47;;;;;;;;;;;;;;;19.08;34.17;99751.59;4880655;29;19935;-68